sensor_id;sensor_type;location;lat;lon;timestamp;temperature;humidity
1812;DHT22;904;47.814;11.134;2022-12-04T00:01:09;3.20;97.90
1812;DHT22;904;47.814;11.134;2022-12-04T00:03:37;3.30;97.70
1812;DHT22;904;47.814;11.134;2022-12-04T00:06:06;3.30;97.50
1812;DHT22;904;47.814;11.134;2022-12-04T00:08:34;3.30;97.30
1812;DHT22;904;47.814;11.134;2022-12-04T00:11:03;3.30;97.30
1812;DHT22;904;47.814;11.134;2022-12-04T00:13:32;3.30;97.20
1812;DHT22;904;47.814;11.134;2022-12-04T00:16:00;3.30;97.10
1812;DHT22;904;47.814;11.134;2022-12-04T00:18:30;3.30;97.10
1812;DHT22;904;47.814;11.134;2022-12-04T00:20:57;3.40;97.00
1812;DHT22;904;47.814;11.134;2022-12-04T00:23:24;3.40;97.00
1812;DHT22;904;47.814;11.134;2022-12-04T00:25:53;3.40;97.00
1812;DHT22;904;47.814;11.134;2022-12-04T00:28:27;3.40;97.00
1812;DHT22;904;47.814;11.134;2022-12-04T00:30:56;3.40;96.90
1812;DHT22;904;47.814;11.134;2022-12-04T00:33:27;3.40;96.70
1812;DHT22;904;47.814;11.134;2022-12-04T00:35:59;3.40;96.80
1812;DHT22;904;47.814;11.134;2022-12-04T00:38:31;3.40;96.90
1812;DHT22;904;47.814;11.134;2022-12-04T00:40:59;3.40;96.80
1812;DHT22;904;47.814;11.134;2022-12-04T00:43:27;3.40;96.80
1812;DHT22;904;47.814;11.134;2022-12-04T00:45:56;3.40;96.70
1812;DHT22;904;47.814;11.134;2022-12-04T00:48:25;3.30;96.70
1812;DHT22;904;47.814;11.134;2022-12-04T00:50:53;3.30;96.90
1812;DHT22;904;47.814;11.134;2022-12-04T00:53:20;3.30;96.90
1812;DHT22;904;47.814;11.134;2022-12-04T00:55:48;3.30;97.00
1812;DHT22;904;47.814;11.134;2022-12-04T00:58:15;3.30;96.90
1812;DHT22;904;47.814;11.134;2022-12-04T01:00:43;3.30;97.00
1812;DHT22;904;47.814;11.134;2022-12-04T01:03:12;3.20;97.10
1812;DHT22;904;47.814;11.134;2022-12-04T01:05:39;3.20;97.30
1812;DHT22;904;47.814;11.134;2022-12-04T01:08:08;3.20;97.30
1812;DHT22;904;47.814;11.134;2022-12-04T01:10:40;3.20;97.50
1812;DHT22;904;47.814;11.134;2022-12-04T01:13:08;3.20;97.20
1812;DHT22;904;47.814;11.134;2022-12-04T01:15:37;3.20;96.90
1812;DHT22;904;47.814;11.134;2022-12-04T01:18:05;3.20;96.90
1812;DHT22;904;47.814;11.134;2022-12-04T01:20:34;3.20;97.00
1812;DHT22;904;47.814;11.134;2022-12-04T01:23:01;3.10;97.00
1812;DHT22;904;47.814;11.134;2022-12-04T01:25:33;3.10;97.10
1812;DHT22;904;47.814;11.134;2022-12-04T01:28:01;3.20;97.20
1812;DHT22;904;47.814;11.134;2022-12-04T01:30:28;3.20;97.30
1812;DHT22;904;47.814;11.134;2022-12-04T01:32:57;3.20;97.20
1812;DHT22;904;47.814;11.134;2022-12-04T01:35:24;3.30;97.20
1812;DHT22;904;47.814;11.134;2022-12-04T01:37:53;3.30;97.00
1812;DHT22;904;47.814;11.134;2022-12-04T01:40:20;3.40;97.00
1812;DHT22;904;47.814;11.134;2022-12-04T01:42:48;3.30;96.80
1812;DHT22;904;47.814;11.134;2022-12-04T01:45:42;3.40;96.90
1812;DHT22;904;47.814;11.134;2022-12-04T01:48:16;3.40;96.90
1812;DHT22;904;47.814;11.134;2022-12-04T01:50:45;3.40;96.70
1812;DHT22;904;47.814;11.134;2022-12-04T01:53:16;3.40;96.70
1812;DHT22;904;47.814;11.134;2022-12-04T01:55:44;3.30;96.80
1812;DHT22;904;47.814;11.134;2022-12-04T01:58:13;3.40;96.90
1812;DHT22;904;47.814;11.134;2022-12-04T02:00:42;3.40;96.90
1812;DHT22;904;47.814;11.134;2022-12-04T02:03:12;3.40;97.40
1812;DHT22;904;47.814;11.134;2022-12-04T02:05:40;3.50;97.00
1812;DHT22;904;47.814;11.134;2022-12-04T02:08:08;3.40;96.90
1812;DHT22;904;47.814;11.134;2022-12-04T02:10:54;3.50;96.90
1812;DHT22;904;47.814;11.134;2022-12-04T02:13:35;3.50;97.00
1812;DHT22;904;47.814;11.134;2022-12-04T02:16:13;3.50;96.60
1812;DHT22;904;47.814;11.134;2022-12-04T02:18:50;3.50;96.50
1812;DHT22;904;47.814;11.134;2022-12-04T02:21:24;3.50;96.50
1812;DHT22;904;47.814;11.134;2022-12-04T02:24:25;3.40;96.50
1812;DHT22;904;47.814;11.134;2022-12-04T02:27:02;3.50;96.70
1812;DHT22;904;47.814;11.134;2022-12-04T02:29:37;3.50;96.70
1812;DHT22;904;47.814;11.134;2022-12-04T02:32:12;3.50;96.70
1812;DHT22;904;47.814;11.134;2022-12-04T02:34:57;3.50;96.70
1812;DHT22;904;47.814;11.134;2022-12-04T02:37:29;3.50;96.60
1812;DHT22;904;47.814;11.134;2022-12-04T02:40:02;3.60;96.40
1812;DHT22;904;47.814;11.134;2022-12-04T02:42:38;3.50;96.40
1812;DHT22;904;47.814;11.134;2022-12-04T02:45:10;3.50;96.30
1812;DHT22;904;47.814;11.134;2022-12-04T02:47:43;3.50;96.30
1812;DHT22;904;47.814;11.134;2022-12-04T02:50:14;3.50;96.30
1812;DHT22;904;47.814;11.134;2022-12-04T02:52:45;3.50;96.30
1812;DHT22;904;47.814;11.134;2022-12-04T02:55:18;3.50;96.40
1812;DHT22;904;47.814;11.134;2022-12-04T02:57:52;3.50;96.40
1812;DHT22;904;47.814;11.134;2022-12-04T03:00:23;3.50;96.20
1812;DHT22;904;47.814;11.134;2022-12-04T03:02:54;3.60;96.20
1812;DHT22;904;47.814;11.134;2022-12-04T03:05:27;3.60;96.20
1812;DHT22;904;47.814;11.134;2022-12-04T03:07:57;3.50;96.30
1812;DHT22;904;47.814;11.134;2022-12-04T03:10:30;3.50;96.20
1812;DHT22;904;47.814;11.134;2022-12-04T03:13:04;3.50;96.20
1812;DHT22;904;47.814;11.134;2022-12-04T03:15:41;3.50;96.30
1812;DHT22;904;47.814;11.134;2022-12-04T03:18:15;3.50;96.50
1812;DHT22;904;47.814;11.134;2022-12-04T03:20:44;3.40;96.60
1812;DHT22;904;47.814;11.134;2022-12-04T03:23:18;3.40;96.70
1812;DHT22;904;47.814;11.134;2022-12-04T03:25:52;3.40;96.70
1812;DHT22;904;47.814;11.134;2022-12-04T03:28:28;3.50;96.80
1812;DHT22;904;47.814;11.134;2022-12-04T03:31:02;3.40;96.80
1812;DHT22;904;47.814;11.134;2022-12-04T03:33:35;3.50;96.90
1812;DHT22;904;47.814;11.134;2022-12-04T03:36:11;3.50;96.90
1812;DHT22;904;47.814;11.134;2022-12-04T03:38:44;3.50;96.70
1812;DHT22;904;47.814;11.134;2022-12-04T03:41:16;3.50;96.80
1812;DHT22;904;47.814;11.134;2022-12-04T03:43:49;3.50;96.70
1812;DHT22;904;47.814;11.134;2022-12-04T03:46:25;3.50;96.50
1812;DHT22;904;47.814;11.134;2022-12-04T03:48:58;3.40;96.50
1812;DHT22;904;47.814;11.134;2022-12-04T03:51:32;3.40;96.60
1812;DHT22;904;47.814;11.134;2022-12-04T03:54:10;3.50;96.60
1812;DHT22;904;47.814;11.134;2022-12-04T03:56:42;3.50;96.30
1812;DHT22;904;47.814;11.134;2022-12-04T03:59:14;3.40;96.50
1812;DHT22;904;47.814;11.134;2022-12-04T04:01:47;3.50;96.60
1812;DHT22;904;47.814;11.134;2022-12-04T04:04:20;3.50;96.90
1812;DHT22;904;47.814;11.134;2022-12-04T04:06:52;3.50;96.50
1812;DHT22;904;47.814;11.134;2022-12-04T04:09:24;3.40;96.60
1812;DHT22;904;47.814;11.134;2022-12-04T04:12:01;3.30;96.50
1812;DHT22;904;47.814;11.134;2022-12-04T04:14:33;3.30;96.60
1812;DHT22;904;47.814;11.134;2022-12-04T04:17:26;3.30;97.00
1812;DHT22;904;47.814;11.134;2022-12-04T04:20:36;3.30;96.80
1812;DHT22;904;47.814;11.134;2022-12-04T04:23:21;3.30;96.90
1812;DHT22;904;47.814;11.134;2022-12-04T04:26:08;3.20;96.90
1812;DHT22;904;47.814;11.134;2022-12-04T04:28:39;3.20;96.80
1812;DHT22;904;47.814;11.134;2022-12-04T04:31:15;3.20;96.70
1812;DHT22;904;47.814;11.134;2022-12-04T04:33:53;3.20;97.00
1812;DHT22;904;47.814;11.134;2022-12-04T04:36:39;3.10;97.00
1812;DHT22;904;47.814;11.134;2022-12-04T04:39:16;3.10;97.20
1812;DHT22;904;47.814;11.134;2022-12-04T04:41:49;3.10;97.20
1812;DHT22;904;47.814;11.134;2022-12-04T04:44:25;3.10;97.30
1812;DHT22;904;47.814;11.134;2022-12-04T04:46:59;3.10;97.30
1812;DHT22;904;47.814;11.134;2022-12-04T04:49:32;3.20;97.40
1812;DHT22;904;47.814;11.134;2022-12-04T04:52:05;3.20;97.20
1812;DHT22;904;47.814;11.134;2022-12-04T04:54:34;3.30;97.20
1812;DHT22;904;47.814;11.134;2022-12-04T04:57:03;3.30;97.10
1812;DHT22;904;47.814;11.134;2022-12-04T04:59:30;3.30;97.00
1812;DHT22;904;47.814;11.134;2022-12-04T05:01:59;3.40;97.00
1812;DHT22;904;47.814;11.134;2022-12-04T05:04:26;3.40;96.80
1812;DHT22;904;47.814;11.134;2022-12-04T05:07:00;3.40;96.60
1812;DHT22;904;47.814;11.134;2022-12-04T05:09:35;3.40;96.70
1812;DHT22;904;47.814;11.134;2022-12-04T05:12:03;3.40;96.50
1812;DHT22;904;47.814;11.134;2022-12-04T05:14:31;3.40;96.30
1812;DHT22;904;47.814;11.134;2022-12-04T05:16:58;3.40;96.30
1812;DHT22;904;47.814;11.134;2022-12-04T05:19:26;3.30;96.30
1812;DHT22;904;47.814;11.134;2022-12-04T05:22:12;3.30;96.40
1812;DHT22;904;47.814;11.134;2022-12-04T05:24:39;3.30;96.60
1812;DHT22;904;47.814;11.134;2022-12-04T05:27:06;3.20;96.70
1812;DHT22;904;47.814;11.134;2022-12-04T05:29:33;3.20;96.60
1812;DHT22;904;47.814;11.134;2022-12-04T05:32:01;3.20;96.60
1812;DHT22;904;47.814;11.134;2022-12-04T05:34:29;3.20;96.70
1812;DHT22;904;47.814;11.134;2022-12-04T05:36:56;3.20;96.70
1812;DHT22;904;47.814;11.134;2022-12-04T05:39:25;3.20;96.90
1812;DHT22;904;47.814;11.134;2022-12-04T05:41:52;3.20;96.80
1812;DHT22;904;47.814;11.134;2022-12-04T05:44:22;3.10;97.00
1812;DHT22;904;47.814;11.134;2022-12-04T05:46:52;3.10;97.10
1812;DHT22;904;47.814;11.134;2022-12-04T05:49:19;3.00;97.30
1812;DHT22;904;47.814;11.134;2022-12-04T05:51:52;3.00;97.50
1812;DHT22;904;47.814;11.134;2022-12-04T05:54:19;2.90;97.60
1812;DHT22;904;47.814;11.134;2022-12-04T05:56:53;2.90;97.70
1812;DHT22;904;47.814;11.134;2022-12-04T05:59:20;2.90;97.80
1812;DHT22;904;47.814;11.134;2022-12-04T06:01:48;2.80;97.90
1812;DHT22;904;47.814;11.134;2022-12-04T06:04:15;2.90;98.00
1812;DHT22;904;47.814;11.134;2022-12-04T06:06:43;2.90;98.00
1812;DHT22;904;47.814;11.134;2022-12-04T06:09:10;3.00;98.00
1812;DHT22;904;47.814;11.134;2022-12-04T06:11:39;3.00;97.80
1812;DHT22;904;47.814;11.134;2022-12-04T06:14:10;3.00;97.90
1812;DHT22;904;47.814;11.134;2022-12-04T06:16:39;3.00;97.50
1812;DHT22;904;47.814;11.134;2022-12-04T06:19:12;3.10;97.70
1812;DHT22;904;47.814;11.134;2022-12-04T06:21:41;3.00;97.60
1812;DHT22;904;47.814;11.134;2022-12-04T06:24:11;3.00;97.70
1812;DHT22;904;47.814;11.134;2022-12-04T06:26:39;3.10;97.80
1812;DHT22;904;47.814;11.134;2022-12-04T06:29:10;3.10;97.80
1812;DHT22;904;47.814;11.134;2022-12-04T06:31:38;3.10;97.90
1812;DHT22;904;47.814;11.134;2022-12-04T06:34:06;3.10;97.80
1812;DHT22;904;47.814;11.134;2022-12-04T06:36:34;3.10;97.90
1812;DHT22;904;47.814;11.134;2022-12-04T06:39:02;3.20;98.00
1812;DHT22;904;47.814;11.134;2022-12-04T06:41:30;3.20;97.80
1812;DHT22;904;47.814;11.134;2022-12-04T06:43:57;3.20;97.90
1812;DHT22;904;47.814;11.134;2022-12-04T06:46:27;3.20;97.90
1812;DHT22;904;47.814;11.134;2022-12-04T06:49:01;3.30;97.90
1812;DHT22;904;47.814;11.134;2022-12-04T06:51:30;3.30;97.80
1812;DHT22;904;47.814;11.134;2022-12-04T06:53:58;3.30;97.80
1812;DHT22;904;47.814;11.134;2022-12-04T06:56:27;3.40;97.70
1812;DHT22;904;47.814;11.134;2022-12-04T06:58:57;3.40;97.70
1812;DHT22;904;47.814;11.134;2022-12-04T07:01:28;3.50;97.70
1812;DHT22;904;47.814;11.134;2022-12-04T07:03:56;3.50;97.70
1812;DHT22;904;47.814;11.134;2022-12-04T07:06:25;3.50;97.60
1812;DHT22;904;47.814;11.134;2022-12-04T07:08:54;3.50;97.40
1812;DHT22;904;47.814;11.134;2022-12-04T07:11:29;3.50;97.50
1812;DHT22;904;47.814;11.134;2022-12-04T07:14:01;3.50;97.50
1812;DHT22;904;47.814;11.134;2022-12-04T07:16:30;3.60;97.50
1812;DHT22;904;47.814;11.134;2022-12-04T07:19:01;3.60;97.50
1812;DHT22;904;47.814;11.134;2022-12-04T07:21:30;3.70;97.40
1812;DHT22;904;47.814;11.134;2022-12-04T07:23:59;3.70;97.40
1812;DHT22;904;47.814;11.134;2022-12-04T07:26:28;3.70;97.30
1812;DHT22;904;47.814;11.134;2022-12-04T07:28:58;3.80;97.40
1812;DHT22;904;47.814;11.134;2022-12-04T07:31:27;3.80;97.30
1812;DHT22;904;47.814;11.134;2022-12-04T07:33:57;3.90;97.20
1812;DHT22;904;47.814;11.134;2022-12-04T07:36:26;3.90;97.00
1812;DHT22;904;47.814;11.134;2022-12-04T07:38:54;3.90;96.90
1812;DHT22;904;47.814;11.134;2022-12-04T07:41:22;3.90;97.00
1812;DHT22;904;47.814;11.134;2022-12-04T07:43:50;4.00;97.00
1812;DHT22;904;47.814;11.134;2022-12-04T07:46:22;4.00;96.90
1812;DHT22;904;47.814;11.134;2022-12-04T07:48:50;4.00;96.70
1812;DHT22;904;47.814;11.134;2022-12-04T07:51:24;4.10;96.60
1812;DHT22;904;47.814;11.134;2022-12-04T07:53:55;4.10;96.50
1812;DHT22;904;47.814;11.134;2022-12-04T07:56:29;4.10;96.10
1812;DHT22;904;47.814;11.134;2022-12-04T07:58:56;4.10;96.20
1812;DHT22;904;47.814;11.134;2022-12-04T08:01:26;4.10;96.10
1812;DHT22;904;47.814;11.134;2022-12-04T08:03:58;4.20;96.10
1812;DHT22;904;47.814;11.134;2022-12-04T08:06:28;4.10;95.80
1812;DHT22;904;47.814;11.134;2022-12-04T08:08:56;4.10;95.80
1812;DHT22;904;47.814;11.134;2022-12-04T08:11:26;4.10;95.90
1812;DHT22;904;47.814;11.134;2022-12-04T08:13:57;4.10;95.80
1812;DHT22;904;47.814;11.134;2022-12-04T08:16:29;4.10;95.80
1812;DHT22;904;47.814;11.134;2022-12-04T08:18:59;4.10;96.00
1812;DHT22;904;47.814;11.134;2022-12-04T08:21:32;4.20;96.10
1812;DHT22;904;47.814;11.134;2022-12-04T08:24:00;4.20;96.00
1812;DHT22;904;47.814;11.134;2022-12-04T08:26:29;4.20;96.10
1812;DHT22;904;47.814;11.134;2022-12-04T08:28:57;4.20;95.70
1812;DHT22;904;47.814;11.134;2022-12-04T08:31:28;4.10;95.70
1812;DHT22;904;47.814;11.134;2022-12-04T08:34:00;4.10;95.60
1812;DHT22;904;47.814;11.134;2022-12-04T08:36:43;4.10;95.60
1812;DHT22;904;47.814;11.134;2022-12-04T08:39:12;4.10;95.70
1812;DHT22;904;47.814;11.134;2022-12-04T08:41:40;4.00;95.50
1812;DHT22;904;47.814;11.134;2022-12-04T08:44:08;4.00;95.80
1812;DHT22;904;47.814;11.134;2022-12-04T08:46:36;4.10;95.80
1812;DHT22;904;47.814;11.134;2022-12-04T08:49:04;4.10;95.70
1812;DHT22;904;47.814;11.134;2022-12-04T08:51:32;4.10;96.10
1812;DHT22;904;47.814;11.134;2022-12-04T08:54:03;4.20;96.00
1812;DHT22;904;47.814;11.134;2022-12-04T08:56:33;4.30;96.10
1812;DHT22;904;47.814;11.134;2022-12-04T08:59:03;4.30;96.20
1812;DHT22;904;47.814;11.134;2022-12-04T09:01:30;4.40;96.00
1812;DHT22;904;47.814;11.134;2022-12-04T09:03:57;4.50;95.90
1812;DHT22;904;47.814;11.134;2022-12-04T09:06:25;4.50;95.60
1812;DHT22;904;47.814;11.134;2022-12-04T09:08:53;4.50;95.50
1812;DHT22;904;47.814;11.134;2022-12-04T09:11:25;4.50;95.60
1812;DHT22;904;47.814;11.134;2022-12-04T09:13:53;4.50;95.20
1812;DHT22;904;47.814;11.134;2022-12-04T09:16:21;4.50;95.10
1812;DHT22;904;47.814;11.134;2022-12-04T09:18:49;4.50;95.00
1812;DHT22;904;47.814;11.134;2022-12-04T09:21:18;4.50;94.80
1812;DHT22;904;47.814;11.134;2022-12-04T09:23:46;4.50;95.00
1812;DHT22;904;47.814;11.134;2022-12-04T09:26:20;4.60;95.10
1812;DHT22;904;47.814;11.134;2022-12-04T09:28:50;4.60;95.20
1812;DHT22;904;47.814;11.134;2022-12-04T09:31:18;4.60;95.00
1812;DHT22;904;47.814;11.134;2022-12-04T09:33:51;4.60;94.90
1812;DHT22;904;47.814;11.134;2022-12-04T09:36:24;4.60;94.80
1812;DHT22;904;47.814;11.134;2022-12-04T09:38:54;4.60;94.80
1812;DHT22;904;47.814;11.134;2022-12-04T09:41:51;4.70;94.60
1812;DHT22;904;47.814;11.134;2022-12-04T09:44:23;4.60;94.50
1812;DHT22;904;47.814;11.134;2022-12-04T09:47:00;4.70;94.50
1812;DHT22;904;47.814;11.134;2022-12-04T09:49:35;4.70;94.90
1812;DHT22;904;47.814;11.134;2022-12-04T09:52:31;4.70;94.60
1812;DHT22;904;47.814;11.134;2022-12-04T09:55:13;4.70;94.70
1812;DHT22;904;47.814;11.134;2022-12-04T09:57:48;4.70;94.40
1812;DHT22;904;47.814;11.134;2022-12-04T10:00:25;4.70;94.60
1812;DHT22;904;47.814;11.134;2022-12-04T10:02:59;4.70;94.70
1812;DHT22;904;47.814;11.134;2022-12-04T10:05:43;4.70;94.70
1812;DHT22;904;47.814;11.134;2022-12-04T10:08:17;4.80;94.70
1812;DHT22;904;47.814;11.134;2022-12-04T10:13:57;4.90;94.80
1812;DHT22;904;47.814;11.134;2022-12-04T10:16:37;4.90;94.40
1812;DHT22;904;47.814;11.134;2022-12-04T10:19:32;4.90;94.30
1812;DHT22;904;47.814;11.134;2022-12-04T10:22:11;5.00;94.30
1812;DHT22;904;47.814;11.134;2022-12-04T10:24:51;5.00;94.10
1812;DHT22;904;47.814;11.134;2022-12-04T10:27:22;5.00;94.00
1812;DHT22;904;47.814;11.134;2022-12-04T10:29:53;5.00;94.00
1812;DHT22;904;47.814;11.134;2022-12-04T10:32:31;5.00;94.00
1812;DHT22;904;47.814;11.134;2022-12-04T10:35:07;5.00;94.10
1812;DHT22;904;47.814;11.134;2022-12-04T10:37:45;5.10;93.90
1812;DHT22;904;47.814;11.134;2022-12-04T10:40:18;5.10;93.70
1812;DHT22;904;47.814;11.134;2022-12-04T10:42:52;5.10;93.90
1812;DHT22;904;47.814;11.134;2022-12-04T10:45:24;5.10;93.80
1812;DHT22;904;47.814;11.134;2022-12-04T10:47:54;5.10;93.80
1812;DHT22;904;47.814;11.134;2022-12-04T10:50:23;5.10;93.70
1812;DHT22;904;47.814;11.134;2022-12-04T10:52:52;5.10;93.60
1812;DHT22;904;47.814;11.134;2022-12-04T10:55:28;5.10;93.60
1812;DHT22;904;47.814;11.134;2022-12-04T10:57:57;5.10;93.30
1812;DHT22;904;47.814;11.134;2022-12-04T11:00:31;5.20;93.60
1812;DHT22;904;47.814;11.134;2022-12-04T11:03:24;5.20;93.40
1812;DHT22;904;47.814;11.134;2022-12-04T11:05:59;5.20;93.70
1812;DHT22;904;47.814;11.134;2022-12-04T11:08:33;5.20;93.60
1812;DHT22;904;47.814;11.134;2022-12-04T11:11:08;5.30;93.60
1812;DHT22;904;47.814;11.134;2022-12-04T11:13:45;5.40;93.80
1812;DHT22;904;47.814;11.134;2022-12-04T11:16:35;5.40;93.40
1812;DHT22;904;47.814;11.134;2022-12-04T11:19:23;5.50;93.40
1812;DHT22;904;47.814;11.134;2022-12-04T11:21:56;5.60;93.00
1812;DHT22;904;47.814;11.134;2022-12-04T11:24:31;5.60;93.40
1812;DHT22;904;47.814;11.134;2022-12-04T11:27:05;5.70;93.10
1812;DHT22;904;47.814;11.134;2022-12-04T11:29:41;5.60;92.40
1812;DHT22;904;47.814;11.134;2022-12-04T11:32:18;5.70;92.70
1812;DHT22;904;47.814;11.134;2022-12-04T11:34:49;5.70;92.60
1812;DHT22;904;47.814;11.134;2022-12-04T11:37:20;5.70;92.50
1812;DHT22;904;47.814;11.134;2022-12-04T11:39:49;5.70;92.40
1812;DHT22;904;47.814;11.134;2022-12-04T11:42:24;5.60;91.90
1812;DHT22;904;47.814;11.134;2022-12-04T11:44:54;5.70;92.10
1812;DHT22;904;47.814;11.134;2022-12-04T11:47:26;5.70;91.80
1812;DHT22;904;47.814;11.134;2022-12-04T11:50:04;5.60;91.80
1812;DHT22;904;47.814;11.134;2022-12-04T11:52:55;5.60;91.60
1812;DHT22;904;47.814;11.134;2022-12-04T11:55:33;5.60;91.80
1812;DHT22;904;47.814;11.134;2022-12-04T11:58:26;5.60;91.90
1812;DHT22;904;47.814;11.134;2022-12-04T12:01:17;5.60;91.70
1812;DHT22;904;47.814;11.134;2022-12-04T12:03:59;5.60;92.00
1812;DHT22;904;47.814;11.134;2022-12-04T12:06:34;5.60;92.10
1812;DHT22;904;47.814;11.134;2022-12-04T12:09:12;5.60;92.10
1812;DHT22;904;47.814;11.134;2022-12-04T12:12:03;5.60;92.00
1812;DHT22;904;47.814;11.134;2022-12-04T12:14:42;5.60;91.90
1812;DHT22;904;47.814;11.134;2022-12-04T12:17:18;5.60;91.80
1812;DHT22;904;47.814;11.134;2022-12-04T12:20:00;5.60;91.90
1812;DHT22;904;47.814;11.134;2022-12-04T12:25:37;5.50;92.00
1812;DHT22;904;47.814;11.134;2022-12-04T12:28:19;5.60;92.10
1812;DHT22;904;47.814;11.134;2022-12-04T12:31:09;5.50;92.00
1812;DHT22;904;47.814;11.134;2022-12-04T12:33:45;5.50;92.00
1812;DHT22;904;47.814;11.134;2022-12-04T12:36:17;5.50;92.00
1812;DHT22;904;47.814;11.134;2022-12-04T12:38:51;5.40;92.00
1812;DHT22;904;47.814;11.134;2022-12-04T12:41:26;5.50;92.20
1812;DHT22;904;47.814;11.134;2022-12-04T12:44:00;5.50;92.00
1812;DHT22;904;47.814;11.134;2022-12-04T12:46:33;5.40;92.00
1812;DHT22;904;47.814;11.134;2022-12-04T12:49:09;5.40;92.20
1812;DHT22;904;47.814;11.134;2022-12-04T12:51:44;5.40;92.10
1812;DHT22;904;47.814;11.134;2022-12-04T12:54:27;5.40;92.00
1812;DHT22;904;47.814;11.134;2022-12-04T12:57:13;5.40;91.90
1812;DHT22;904;47.814;11.134;2022-12-04T12:59:46;5.40;91.70
1812;DHT22;904;47.814;11.134;2022-12-04T13:02:22;5.40;91.80
1812;DHT22;904;47.814;11.134;2022-12-04T13:04:54;5.40;91.80
1812;DHT22;904;47.814;11.134;2022-12-04T13:07:28;5.40;91.90
1812;DHT22;904;47.814;11.134;2022-12-04T13:10:10;5.30;91.60
1812;DHT22;904;47.814;11.134;2022-12-04T13:12:42;5.30;91.70
1812;DHT22;904;47.814;11.134;2022-12-04T13:15:16;5.30;91.80
1812;DHT22;904;47.814;11.134;2022-12-04T13:17:47;5.30;91.80
1812;DHT22;904;47.814;11.134;2022-12-04T13:20:23;5.30;91.70
1812;DHT22;904;47.814;11.134;2022-12-04T13:23:06;5.30;91.60
1812;DHT22;904;47.814;11.134;2022-12-04T13:25:46;5.30;91.40
1812;DHT22;904;47.814;11.134;2022-12-04T13:28:26;5.30;91.60
1812;DHT22;904;47.814;11.134;2022-12-04T13:31:02;5.30;91.70
1812;DHT22;904;47.814;11.134;2022-12-04T13:33:57;5.30;91.70
1812;DHT22;904;47.814;11.134;2022-12-04T13:36:39;5.30;91.50
1812;DHT22;904;47.814;11.134;2022-12-04T13:42:21;5.30;91.60
1812;DHT22;904;47.814;11.134;2022-12-04T13:44:53;5.30;91.70
1812;DHT22;904;47.814;11.134;2022-12-04T13:47:29;5.30;91.70
1812;DHT22;904;47.814;11.134;2022-12-04T13:50:24;5.30;91.80
1812;DHT22;904;47.814;11.134;2022-12-04T13:52:53;5.30;91.80
1812;DHT22;904;47.814;11.134;2022-12-04T13:55:26;5.30;91.80
1812;DHT22;904;47.814;11.134;2022-12-04T13:58:27;5.20;91.70
1812;DHT22;904;47.814;11.134;2022-12-04T14:01:05;5.20;91.90
1812;DHT22;904;47.814;11.134;2022-12-04T14:03:45;5.20;92.00
1812;DHT22;904;47.814;11.134;2022-12-04T14:06:34;5.20;92.00
1812;DHT22;904;47.814;11.134;2022-12-04T14:09:20;5.20;91.90
1812;DHT22;904;47.814;11.134;2022-12-04T14:11:56;5.10;92.00
1812;DHT22;904;47.814;11.134;2022-12-04T14:14:29;5.10;92.00
1812;DHT22;904;47.814;11.134;2022-12-04T14:17:02;5.10;92.10
1812;DHT22;904;47.814;11.134;2022-12-04T14:19:32;5.10;92.10
1812;DHT22;904;47.814;11.134;2022-12-04T14:22:03;5.10;91.90
1812;DHT22;904;47.814;11.134;2022-12-04T14:24:34;5.10;92.10
1812;DHT22;904;47.814;11.134;2022-12-04T14:29:59;5.00;91.90
1812;DHT22;904;47.814;11.134;2022-12-04T14:32:30;5.00;92.20
1812;DHT22;904;47.814;11.134;2022-12-04T14:35:14;5.00;92.30
1812;DHT22;904;47.814;11.134;2022-12-04T14:37:49;5.00;92.20
1812;DHT22;904;47.814;11.134;2022-12-04T14:40:21;5.00;92.20
1812;DHT22;904;47.814;11.134;2022-12-04T14:42:50;4.90;92.30
1812;DHT22;904;47.814;11.134;2022-12-04T14:45:33;4.90;92.40
1812;DHT22;904;47.814;11.134;2022-12-04T14:48:26;4.90;92.50
1812;DHT22;904;47.814;11.134;2022-12-04T14:51:09;4.90;92.60
1812;DHT22;904;47.814;11.134;2022-12-04T14:53:48;4.90;92.60
1812;DHT22;904;47.814;11.134;2022-12-04T14:56:36;4.90;92.50
1812;DHT22;904;47.814;11.134;2022-12-04T14:59:16;4.90;92.70
1812;DHT22;904;47.814;11.134;2022-12-04T15:01:53;4.90;92.80
1812;DHT22;904;47.814;11.134;2022-12-04T15:04:29;4.90;92.80
1812;DHT22;904;47.814;11.134;2022-12-04T15:06:57;4.90;92.70
1812;DHT22;904;47.814;11.134;2022-12-04T15:09:28;4.90;92.70
1812;DHT22;904;47.814;11.134;2022-12-04T15:12:23;4.90;92.90
1812;DHT22;904;47.814;11.134;2022-12-04T15:15:14;4.90;92.80
1812;DHT22;904;47.814;11.134;2022-12-04T15:17:57;4.90;92.80
1812;DHT22;904;47.814;11.134;2022-12-04T15:20:26;4.80;92.70
1812;DHT22;904;47.814;11.134;2022-12-04T15:22:55;4.80;92.90
1812;DHT22;904;47.814;11.134;2022-12-04T15:25:30;4.80;93.00
1812;DHT22;904;47.814;11.134;2022-12-04T15:28:11;4.80;93.10
1812;DHT22;904;47.814;11.134;2022-12-04T15:30:43;4.80;93.30
1812;DHT22;904;47.814;11.134;2022-12-04T15:33:16;4.80;93.30
1812;DHT22;904;47.814;11.134;2022-12-04T15:35:47;4.80;93.30
1812;DHT22;904;47.814;11.134;2022-12-04T15:38:17;4.80;93.30
1812;DHT22;904;47.814;11.134;2022-12-04T15:40:56;4.80;93.30
1812;DHT22;904;47.814;11.134;2022-12-04T15:43:29;4.80;93.20
1812;DHT22;904;47.814;11.134;2022-12-04T15:46:11;4.90;93.30
1812;DHT22;904;47.814;11.134;2022-12-04T15:48:43;4.80;93.30
1812;DHT22;904;47.814;11.134;2022-12-04T15:51:15;4.80;93.20
1812;DHT22;904;47.814;11.134;2022-12-04T15:53:45;4.90;93.20
1812;DHT22;904;47.814;11.134;2022-12-04T15:56:16;4.90;93.20
1812;DHT22;904;47.814;11.134;2022-12-04T15:59:01;4.80;93.20
1812;DHT22;904;47.814;11.134;2022-12-04T16:01:37;4.80;93.30
1812;DHT22;904;47.814;11.134;2022-12-04T16:04:18;4.80;93.20
1812;DHT22;904;47.814;11.134;2022-12-04T16:06:50;4.80;93.30
1812;DHT22;904;47.814;11.134;2022-12-04T16:09:23;4.80;93.40
1812;DHT22;904;47.814;11.134;2022-12-04T16:12:21;4.80;93.50
1812;DHT22;904;47.814;11.134;2022-12-04T16:14:55;4.80;93.50
1812;DHT22;904;47.814;11.134;2022-12-04T16:17:30;4.80;93.40
1812;DHT22;904;47.814;11.134;2022-12-04T16:20:03;4.70;93.40
1812;DHT22;904;47.814;11.134;2022-12-04T16:22:31;4.70;93.50
1812;DHT22;904;47.814;11.134;2022-12-04T16:25:01;4.80;93.90
1812;DHT22;904;47.814;11.134;2022-12-04T16:27:28;4.70;93.40
1812;DHT22;904;47.814;11.134;2022-12-04T16:29:56;4.60;93.50
1812;DHT22;904;47.814;11.134;2022-12-04T16:32:30;4.60;93.60
1812;DHT22;904;47.814;11.134;2022-12-04T16:34:59;4.60;93.70
1812;DHT22;904;47.814;11.134;2022-12-04T16:37:30;4.60;93.70
1812;DHT22;904;47.814;11.134;2022-12-04T16:39:57;4.60;93.70
1812;DHT22;904;47.814;11.134;2022-12-04T16:42:28;4.70;93.70
1812;DHT22;904;47.814;11.134;2022-12-04T16:44:55;4.60;93.60
1812;DHT22;904;47.814;11.134;2022-12-04T16:47:25;4.60;93.60
1812;DHT22;904;47.814;11.134;2022-12-04T16:49:55;4.60;93.50
1812;DHT22;904;47.814;11.134;2022-12-04T16:52:28;4.60;93.60
1812;DHT22;904;47.814;11.134;2022-12-04T16:54:55;4.60;93.60
1812;DHT22;904;47.814;11.134;2022-12-04T16:57:26;4.60;93.50
1812;DHT22;904;47.814;11.134;2022-12-04T16:59:54;4.70;93.80
1812;DHT22;904;47.814;11.134;2022-12-04T17:02:27;4.70;93.40
1812;DHT22;904;47.814;11.134;2022-12-04T17:05:00;4.60;93.40
1812;DHT22;904;47.814;11.134;2022-12-04T17:07:30;4.60;93.60
1812;DHT22;904;47.814;11.134;2022-12-04T17:10:04;4.60;93.50